EGSC

Cambridge Airport

Cambridge, United Kingdom
METAR EGSC 221650Z 01014KT CAVOK 16/10 Q1018
Observed Flight Rules
May-22 @ 16:50 UTC (8 hours ago) Visual Flight Rules
Wind Visibility Clouds
10° at 14 knots 10,000+ meters
  • Clear skies
Temperatures Readings
Current 16°C / 61°F
Dewpoint 10°C / 50°F
Humidity 68%
Altimeter 30.06" Hg
Pressure 1018 hPa
Elevation 15
METAR EGSC 221650Z 01014KT CAVOK 16/10 Q1018
Observed Flight Rules
May-22 @ 16:50 UTC
(8 hours ago)
VFR
Wind Visibility
10° at 14 knots 10,000+ meters
Clouds
  • Clear skies
Temperature Dewpoint
16°C / 61°F 10°C / 50°F
Humidity Altimeter Pressure
68% 30.06" Hg 1018 hPa